sensor_id;sensor_type;location;lat;lon;timestamp;temperature;humidity
2625;DHT22;1322;53.256;10.386;2023-08-07T00:02:17;16.80;99.90
2625;DHT22;1322;53.256;10.386;2023-08-07T00:04:42;16.80;99.90
2625;DHT22;1322;53.256;10.386;2023-08-07T00:07:08;16.70;99.90
2625;DHT22;1322;53.256;10.386;2023-08-07T00:09:34;16.80;99.90
2625;DHT22;1322;53.256;10.386;2023-08-07T00:11:59;16.80;99.90
2625;DHT22;1322;53.256;10.386;2023-08-07T00:14:25;16.80;99.90
2625;DHT22;1322;53.256;10.386;2023-08-07T00:16:50;16.80;99.90
2625;DHT22;1322;53.256;10.386;2023-08-07T00:19:16;16.80;99.90
2625;DHT22;1322;53.256;10.386;2023-08-07T00:21:42;16.80;99.90
2625;DHT22;1322;53.256;10.386;2023-08-07T00:24:07;16.80;99.90
2625;DHT22;1322;53.256;10.386;2023-08-07T00:26:33;16.80;99.90
2625;DHT22;1322;53.256;10.386;2023-08-07T00:28:59;16.80;99.90
2625;DHT22;1322;53.256;10.386;2023-08-07T00:31:24;16.80;99.90
2625;DHT22;1322;53.256;10.386;2023-08-07T00:33:50;16.80;99.90
2625;DHT22;1322;53.256;10.386;2023-08-07T00:36:19;16.90;99.90
2625;DHT22;1322;53.256;10.386;2023-08-07T00:38:45;16.80;99.90
2625;DHT22;1322;53.256;10.386;2023-08-07T00:41:10;16.80;99.90
2625;DHT22;1322;53.256;10.386;2023-08-07T00:43:36;16.90;99.90
2625;DHT22;1322;53.256;10.386;2023-08-07T00:46:01;16.90;99.90
2625;DHT22;1322;53.256;10.386;2023-08-07T00:48:28;16.90;99.90
2625;DHT22;1322;53.256;10.386;2023-08-07T00:50:55;16.90;99.90
2625;DHT22;1322;53.256;10.386;2023-08-07T00:53:21;16.90;99.90
2625;DHT22;1322;53.256;10.386;2023-08-07T00:55:47;16.90;99.90
2625;DHT22;1322;53.256;10.386;2023-08-07T00:58:14;16.80;99.90
2625;DHT22;1322;53.256;10.386;2023-08-07T01:00:39;16.80;99.90
2625;DHT22;1322;53.256;10.386;2023-08-07T01:03:07;16.80;99.90
2625;DHT22;1322;53.256;10.386;2023-08-07T01:05:33;16.80;99.90
2625;DHT22;1322;53.256;10.386;2023-08-07T01:07:59;16.70;99.90
2625;DHT22;1322;53.256;10.386;2023-08-07T01:13:07;16.70;99.90
2625;DHT22;1322;53.256;10.386;2023-08-07T01:15:37;16.80;99.90
2625;DHT22;1322;53.256;10.386;2023-08-07T01:18:04;16.80;99.90
2625;DHT22;1322;53.256;10.386;2023-08-07T01:20:32;16.80;99.90
2625;DHT22;1322;53.256;10.386;2023-08-07T01:22:58;16.80;99.90
2625;DHT22;1322;53.256;10.386;2023-08-07T01:25:23;16.70;99.90
2625;DHT22;1322;53.256;10.386;2023-08-07T01:30:38;16.70;99.90
2625;DHT22;1322;53.256;10.386;2023-08-07T01:33:11;16.70;99.90
2625;DHT22;1322;53.256;10.386;2023-08-07T01:35:51;16.60;99.90
2625;DHT22;1322;53.256;10.386;2023-08-07T01:38:17;16.60;99.90
2625;DHT22;1322;53.256;10.386;2023-08-07T01:40:44;16.60;99.90
2625;DHT22;1322;53.256;10.386;2023-08-07T01:43:11;16.60;99.90
2625;DHT22;1322;53.256;10.386;2023-08-07T01:45:37;16.60;99.90
2625;DHT22;1322;53.256;10.386;2023-08-07T01:48:03;16.60;99.90
2625;DHT22;1322;53.256;10.386;2023-08-07T01:50:29;16.70;99.90
2625;DHT22;1322;53.256;10.386;2023-08-07T01:52:54;16.60;99.90
2625;DHT22;1322;53.256;10.386;2023-08-07T01:55:22;16.70;99.90
2625;DHT22;1322;53.256;10.386;2023-08-07T01:57:47;16.70;99.90
2625;DHT22;1322;53.256;10.386;2023-08-07T02:00:13;16.60;99.90
2625;DHT22;1322;53.256;10.386;2023-08-07T02:02:39;16.60;99.90
2625;DHT22;1322;53.256;10.386;2023-08-07T02:05:05;16.50;99.90
2625;DHT22;1322;53.256;10.386;2023-08-07T02:07:31;16.50;99.90
2625;DHT22;1322;53.256;10.386;2023-08-07T02:09:57;16.40;99.90
2625;DHT22;1322;53.256;10.386;2023-08-07T02:12:23;16.40;99.90
2625;DHT22;1322;53.256;10.386;2023-08-07T02:14:49;16.40;99.90
2625;DHT22;1322;53.256;10.386;2023-08-07T02:17:15;16.40;99.90
2625;DHT22;1322;53.256;10.386;2023-08-07T02:19:41;16.30;99.90
2625;DHT22;1322;53.256;10.386;2023-08-07T02:22:06;16.30;99.90
2625;DHT22;1322;53.256;10.386;2023-08-07T02:24:32;16.30;99.90
2625;DHT22;1322;53.256;10.386;2023-08-07T02:26:58;16.30;99.90
2625;DHT22;1322;53.256;10.386;2023-08-07T02:29:23;16.30;99.90
2625;DHT22;1322;53.256;10.386;2023-08-07T02:31:49;16.30;99.90
2625;DHT22;1322;53.256;10.386;2023-08-07T02:34:16;16.30;99.90
2625;DHT22;1322;53.256;10.386;2023-08-07T02:36:42;16.30;99.90
2625;DHT22;1322;53.256;10.386;2023-08-07T02:39:08;16.30;99.90
2625;DHT22;1322;53.256;10.386;2023-08-07T02:41:34;16.30;99.90
2625;DHT22;1322;53.256;10.386;2023-08-07T02:43:59;16.30;99.90
2625;DHT22;1322;53.256;10.386;2023-08-07T02:46:25;16.40;99.90
2625;DHT22;1322;53.256;10.386;2023-08-07T02:48:51;16.30;99.90
2625;DHT22;1322;53.256;10.386;2023-08-07T02:51:16;16.30;99.90
2625;DHT22;1322;53.256;10.386;2023-08-07T02:53:42;16.40;99.90
2625;DHT22;1322;53.256;10.386;2023-08-07T02:56:07;16.30;99.90
2625;DHT22;1322;53.256;10.386;2023-08-07T02:58:33;16.30;99.90
2625;DHT22;1322;53.256;10.386;2023-08-07T03:01:05;16.30;99.90
2625;DHT22;1322;53.256;10.386;2023-08-07T03:03:31;16.30;99.90
2625;DHT22;1322;53.256;10.386;2023-08-07T03:05:57;16.40;99.90
2625;DHT22;1322;53.256;10.386;2023-08-07T03:08:23;16.40;99.90
2625;DHT22;1322;53.256;10.386;2023-08-07T03:10:52;16.40;99.90
2625;DHT22;1322;53.256;10.386;2023-08-07T03:13:19;16.40;99.90
2625;DHT22;1322;53.256;10.386;2023-08-07T03:15:45;16.30;99.90
2625;DHT22;1322;53.256;10.386;2023-08-07T03:18:10;16.40;99.90
2625;DHT22;1322;53.256;10.386;2023-08-07T03:20:37;16.40;99.90
2625;DHT22;1322;53.256;10.386;2023-08-07T03:23:03;16.40;99.90
2625;DHT22;1322;53.256;10.386;2023-08-07T03:25:28;16.40;99.90
2625;DHT22;1322;53.256;10.386;2023-08-07T03:27:54;16.40;99.90
2625;DHT22;1322;53.256;10.386;2023-08-07T03:30:20;16.40;99.90
2625;DHT22;1322;53.256;10.386;2023-08-07T03:32:45;16.40;99.90
2625;DHT22;1322;53.256;10.386;2023-08-07T03:35:11;16.40;99.90
2625;DHT22;1322;53.256;10.386;2023-08-07T03:37:37;16.30;99.90
2625;DHT22;1322;53.256;10.386;2023-08-07T03:40:02;16.40;99.90
2625;DHT22;1322;53.256;10.386;2023-08-07T03:42:28;16.40;99.90
2625;DHT22;1322;53.256;10.386;2023-08-07T03:44:54;16.40;99.90
2625;DHT22;1322;53.256;10.386;2023-08-07T03:47:19;16.40;99.90
2625;DHT22;1322;53.256;10.386;2023-08-07T03:49:45;16.40;99.90
2625;DHT22;1322;53.256;10.386;2023-08-07T03:52:11;16.40;99.90
2625;DHT22;1322;53.256;10.386;2023-08-07T03:54:36;16.40;99.90
2625;DHT22;1322;53.256;10.386;2023-08-07T03:57:02;16.40;99.90
2625;DHT22;1322;53.256;10.386;2023-08-07T03:59:28;16.40;99.90
2625;DHT22;1322;53.256;10.386;2023-08-07T04:01:53;16.40;99.90
2625;DHT22;1322;53.256;10.386;2023-08-07T04:04:19;16.40;99.90
2625;DHT22;1322;53.256;10.386;2023-08-07T04:06:44;16.40;99.90
2625;DHT22;1322;53.256;10.386;2023-08-07T04:09:10;16.30;99.90
2625;DHT22;1322;53.256;10.386;2023-08-07T04:11:36;16.40;99.90
2625;DHT22;1322;53.256;10.386;2023-08-07T04:14:02;16.40;99.90
2625;DHT22;1322;53.256;10.386;2023-08-07T04:16:30;16.40;99.90
2625;DHT22;1322;53.256;10.386;2023-08-07T04:18:56;16.30;99.90
2625;DHT22;1322;53.256;10.386;2023-08-07T04:21:22;16.40;99.90
2625;DHT22;1322;53.256;10.386;2023-08-07T04:23:47;16.40;99.90
2625;DHT22;1322;53.256;10.386;2023-08-07T04:26:13;16.50;99.90
2625;DHT22;1322;53.256;10.386;2023-08-07T04:28:39;16.50;99.90
2625;DHT22;1322;53.256;10.386;2023-08-07T04:31:05;16.50;99.90
2625;DHT22;1322;53.256;10.386;2023-08-07T04:33:31;16.50;99.90
2625;DHT22;1322;53.256;10.386;2023-08-07T04:35:57;16.50;99.90
2625;DHT22;1322;53.256;10.386;2023-08-07T04:38:22;16.60;99.90
2625;DHT22;1322;53.256;10.386;2023-08-07T04:40:49;16.60;99.90
2625;DHT22;1322;53.256;10.386;2023-08-07T04:43:19;16.60;99.90
2625;DHT22;1322;53.256;10.386;2023-08-07T04:45:48;16.70;99.90
2625;DHT22;1322;53.256;10.386;2023-08-07T04:48:13;16.70;99.90
2625;DHT22;1322;53.256;10.386;2023-08-07T04:50:39;16.80;99.90
2625;DHT22;1322;53.256;10.386;2023-08-07T04:53:05;16.80;99.90
2625;DHT22;1322;53.256;10.386;2023-08-07T04:55:31;16.80;99.90
2625;DHT22;1322;53.256;10.386;2023-08-07T04:57:57;16.90;99.90
2625;DHT22;1322;53.256;10.386;2023-08-07T05:00:23;16.90;99.90
2625;DHT22;1322;53.256;10.386;2023-08-07T05:02:49;16.90;99.90
2625;DHT22;1322;53.256;10.386;2023-08-07T05:05:15;17.00;99.90
2625;DHT22;1322;53.256;10.386;2023-08-07T05:07:41;17.00;99.90
2625;DHT22;1322;53.256;10.386;2023-08-07T05:10:09;17.10;99.90
2625;DHT22;1322;53.256;10.386;2023-08-07T05:12:35;17.10;99.90
2625;DHT22;1322;53.256;10.386;2023-08-07T05:15:01;17.20;99.90
2625;DHT22;1322;53.256;10.386;2023-08-07T05:17:27;17.20;99.90
2625;DHT22;1322;53.256;10.386;2023-08-07T05:19:52;17.30;99.90
2625;DHT22;1322;53.256;10.386;2023-08-07T05:22:18;17.30;99.90
2625;DHT22;1322;53.256;10.386;2023-08-07T05:24:44;17.40;99.90
2625;DHT22;1322;53.256;10.386;2023-08-07T05:27:11;17.50;99.90
2625;DHT22;1322;53.256;10.386;2023-08-07T05:29:37;17.40;99.90
2625;DHT22;1322;53.256;10.386;2023-08-07T05:32:12;17.40;99.90
2625;DHT22;1322;53.256;10.386;2023-08-07T05:34:39;17.40;99.90
2625;DHT22;1322;53.256;10.386;2023-08-07T05:37:05;17.50;99.90
2625;DHT22;1322;53.256;10.386;2023-08-07T05:39:32;17.50;99.90
2625;DHT22;1322;53.256;10.386;2023-08-07T05:41:57;17.60;99.90
2625;DHT22;1322;53.256;10.386;2023-08-07T05:44:26;17.60;99.90
2625;DHT22;1322;53.256;10.386;2023-08-07T05:46:52;17.70;99.90
2625;DHT22;1322;53.256;10.386;2023-08-07T05:49:19;17.80;99.90
2625;DHT22;1322;53.256;10.386;2023-08-07T05:51:45;17.90;99.90
2625;DHT22;1322;53.256;10.386;2023-08-07T05:54:11;17.90;99.90
2625;DHT22;1322;53.256;10.386;2023-08-07T05:56:37;18.00;99.90
2625;DHT22;1322;53.256;10.386;2023-08-07T05:59:03;18.00;99.90
2625;DHT22;1322;53.256;10.386;2023-08-07T06:01:29;18.10;99.90
2625;DHT22;1322;53.256;10.386;2023-08-07T06:03:57;18.10;99.90
2625;DHT22;1322;53.256;10.386;2023-08-07T06:06:23;18.20;99.90
2625;DHT22;1322;53.256;10.386;2023-08-07T06:08:48;18.20;99.90
2625;DHT22;1322;53.256;10.386;2023-08-07T06:11:14;18.20;99.90
2625;DHT22;1322;53.256;10.386;2023-08-07T06:13:42;18.30;99.90
2625;DHT22;1322;53.256;10.386;2023-08-07T06:16:08;18.40;99.90
2625;DHT22;1322;53.256;10.386;2023-08-07T06:18:34;18.40;99.90
2625;DHT22;1322;53.256;10.386;2023-08-07T06:21:00;18.40;99.90
2625;DHT22;1322;53.256;10.386;2023-08-07T06:23:25;18.40;99.90
2625;DHT22;1322;53.256;10.386;2023-08-07T06:25:51;18.40;99.90
2625;DHT22;1322;53.256;10.386;2023-08-07T06:28:16;18.30;99.90
2625;DHT22;1322;53.256;10.386;2023-08-07T06:30:42;18.20;99.90
2625;DHT22;1322;53.256;10.386;2023-08-07T06:33:08;18.20;99.90
2625;DHT22;1322;53.256;10.386;2023-08-07T06:35:39;18.10;99.90
2625;DHT22;1322;53.256;10.386;2023-08-07T06:38:06;18.00;99.90
2625;DHT22;1322;53.256;10.386;2023-08-07T06:40:31;18.00;99.90
2625;DHT22;1322;53.256;10.386;2023-08-07T06:42:57;17.90;99.90
2625;DHT22;1322;53.256;10.386;2023-08-07T06:45:23;17.80;99.90
2625;DHT22;1322;53.256;10.386;2023-08-07T06:47:49;17.90;99.90
2625;DHT22;1322;53.256;10.386;2023-08-07T06:50:14;18.00;99.90
2625;DHT22;1322;53.256;10.386;2023-08-07T06:52:40;18.20;99.90
2625;DHT22;1322;53.256;10.386;2023-08-07T06:55:06;18.30;99.90
2625;DHT22;1322;53.256;10.386;2023-08-07T06:57:32;18.40;99.90
2625;DHT22;1322;53.256;10.386;2023-08-07T06:59:57;18.60;99.90
2625;DHT22;1322;53.256;10.386;2023-08-07T07:02:23;18.80;99.90
2625;DHT22;1322;53.256;10.386;2023-08-07T07:04:49;18.90;99.90
2625;DHT22;1322;53.256;10.386;2023-08-07T07:07:15;19.00;99.90
2625;DHT22;1322;53.256;10.386;2023-08-07T07:09:41;19.00;99.90
2625;DHT22;1322;53.256;10.386;2023-08-07T07:12:07;19.00;99.90
2625;DHT22;1322;53.256;10.386;2023-08-07T07:14:33;19.10;99.90
2625;DHT22;1322;53.256;10.386;2023-08-07T07:17:01;19.10;99.90
2625;DHT22;1322;53.256;10.386;2023-08-07T07:19:27;19.10;99.90
2625;DHT22;1322;53.256;10.386;2023-08-07T07:21:53;19.10;99.90
2625;DHT22;1322;53.256;10.386;2023-08-07T07:24:18;19.00;99.90
2625;DHT22;1322;53.256;10.386;2023-08-07T07:26:44;18.90;99.90
2625;DHT22;1322;53.256;10.386;2023-08-07T07:29:09;19.00;99.90
2625;DHT22;1322;53.256;10.386;2023-08-07T07:31:35;19.00;99.90
2625;DHT22;1322;53.256;10.386;2023-08-07T07:34:01;19.10;99.90
2625;DHT22;1322;53.256;10.386;2023-08-07T07:36:27;19.00;99.90
2625;DHT22;1322;53.256;10.386;2023-08-07T07:38:53;18.80;99.90
2625;DHT22;1322;53.256;10.386;2023-08-07T07:41:18;18.80;99.90
2625;DHT22;1322;53.256;10.386;2023-08-07T07:43:44;18.70;99.90
2625;DHT22;1322;53.256;10.386;2023-08-07T07:46:10;18.40;99.90
2625;DHT22;1322;53.256;10.386;2023-08-07T07:48:35;18.00;99.90
2625;DHT22;1322;53.256;10.386;2023-08-07T07:51:03;17.60;99.90
2625;DHT22;1322;53.256;10.386;2023-08-07T07:53:29;17.50;99.90
2625;DHT22;1322;53.256;10.386;2023-08-07T07:55:55;17.40;99.90
2625;DHT22;1322;53.256;10.386;2023-08-07T07:58:21;17.50;99.90
2625;DHT22;1322;53.256;10.386;2023-08-07T08:00:47;17.50;99.90
2625;DHT22;1322;53.256;10.386;2023-08-07T08:03:13;17.60;99.90
2625;DHT22;1322;53.256;10.386;2023-08-07T08:05:39;17.80;99.90
2625;DHT22;1322;53.256;10.386;2023-08-07T08:08:05;17.90;99.90
2625;DHT22;1322;53.256;10.386;2023-08-07T08:10:32;18.10;99.90
2625;DHT22;1322;53.256;10.386;2023-08-07T08:12:58;18.10;99.90
2625;DHT22;1322;53.256;10.386;2023-08-07T08:15:24;18.10;99.90
2625;DHT22;1322;53.256;10.386;2023-08-07T08:17:50;17.90;99.90
2625;DHT22;1322;53.256;10.386;2023-08-07T08:20:16;17.50;99.90
2625;DHT22;1322;53.256;10.386;2023-08-07T08:22:44;16.80;99.90
2625;DHT22;1322;53.256;10.386;2023-08-07T08:25:09;16.10;99.90
2625;DHT22;1322;53.256;10.386;2023-08-07T08:27:37;15.80;99.90
2625;DHT22;1322;53.256;10.386;2023-08-07T08:30:03;15.90;99.90
2625;DHT22;1322;53.256;10.386;2023-08-07T08:32:29;16.00;99.90
2625;DHT22;1322;53.256;10.386;2023-08-07T08:34:55;16.20;99.90
2625;DHT22;1322;53.256;10.386;2023-08-07T08:37:21;16.50;99.90
2625;DHT22;1322;53.256;10.386;2023-08-07T08:39:47;16.80;99.90
2625;DHT22;1322;53.256;10.386;2023-08-07T08:42:12;17.00;99.90
2625;DHT22;1322;53.256;10.386;2023-08-07T08:44:39;17.10;99.90
2625;DHT22;1322;53.256;10.386;2023-08-07T08:47:06;17.20;99.90
2625;DHT22;1322;53.256;10.386;2023-08-07T08:49:40;17.20;99.90
2625;DHT22;1322;53.256;10.386;2023-08-07T08:52:09;17.10;99.90
2625;DHT22;1322;53.256;10.386;2023-08-07T08:54:35;16.90;99.90
2625;DHT22;1322;53.256;10.386;2023-08-07T08:57:01;16.80;99.90
2625;DHT22;1322;53.256;10.386;2023-08-07T08:59:28;16.90;99.90
2625;DHT22;1322;53.256;10.386;2023-08-07T09:01:54;17.10;99.90
2625;DHT22;1322;53.256;10.386;2023-08-07T09:04:19;17.40;99.90
2625;DHT22;1322;53.256;10.386;2023-08-07T09:06:46;17.70;99.90
2625;DHT22;1322;53.256;10.386;2023-08-07T09:09:13;17.80;99.90
2625;DHT22;1322;53.256;10.386;2023-08-07T09:11:41;17.80;99.90
2625;DHT22;1322;53.256;10.386;2023-08-07T09:14:07;17.90;99.90
2625;DHT22;1322;53.256;10.386;2023-08-07T09:16:35;18.10;99.90
2625;DHT22;1322;53.256;10.386;2023-08-07T09:19:01;18.30;99.90
2625;DHT22;1322;53.256;10.386;2023-08-07T09:21:27;18.50;99.90
2625;DHT22;1322;53.256;10.386;2023-08-07T09:23:54;18.50;99.90
2625;DHT22;1322;53.256;10.386;2023-08-07T09:26:23;18.50;99.90
2625;DHT22;1322;53.256;10.386;2023-08-07T09:28:53;18.70;99.90
2625;DHT22;1322;53.256;10.386;2023-08-07T09:31:20;18.90;99.90
2625;DHT22;1322;53.256;10.386;2023-08-07T09:33:47;19.10;99.90
2625;DHT22;1322;53.256;10.386;2023-08-07T09:36:14;19.20;99.90
2625;DHT22;1322;53.256;10.386;2023-08-07T09:38:39;19.10;99.90
2625;DHT22;1322;53.256;10.386;2023-08-07T09:41:05;19.00;99.90
2625;DHT22;1322;53.256;10.386;2023-08-07T09:43:37;19.00;99.90
2625;DHT22;1322;53.256;10.386;2023-08-07T09:48:29;19.20;99.90
2625;DHT22;1322;53.256;10.386;2023-08-07T09:50:58;19.20;99.90
2625;DHT22;1322;53.256;10.386;2023-08-07T09:53:26;19.20;99.90
2625;DHT22;1322;53.256;10.386;2023-08-07T09:55:53;19.30;99.90
2625;DHT22;1322;53.256;10.386;2023-08-07T09:58:20;19.40;99.90
2625;DHT22;1322;53.256;10.386;2023-08-07T10:00:46;19.40;99.90
2625;DHT22;1322;53.256;10.386;2023-08-07T10:03:13;19.40;99.90
2625;DHT22;1322;53.256;10.386;2023-08-07T10:05:40;19.30;99.90
2625;DHT22;1322;53.256;10.386;2023-08-07T10:08:06;19.30;99.90
2625;DHT22;1322;53.256;10.386;2023-08-07T10:10:33;19.30;99.90
2625;DHT22;1322;53.256;10.386;2023-08-07T10:13:00;19.30;99.90
2625;DHT22;1322;53.256;10.386;2023-08-07T10:15:27;19.20;99.90
2625;DHT22;1322;53.256;10.386;2023-08-07T10:17:53;19.30;99.90
2625;DHT22;1322;53.256;10.386;2023-08-07T10:20:20;19.60;99.90
2625;DHT22;1322;53.256;10.386;2023-08-07T10:22:47;19.70;99.90
2625;DHT22;1322;53.256;10.386;2023-08-07T10:25:13;19.50;99.90
2625;DHT22;1322;53.256;10.386;2023-08-07T10:27:40;19.50;99.90
2625;DHT22;1322;53.256;10.386;2023-08-07T10:30:10;19.60;99.90
2625;DHT22;1322;53.256;10.386;2023-08-07T10:32:41;19.80;99.90
2625;DHT22;1322;53.256;10.386;2023-08-07T10:35:08;19.40;99.90
2625;DHT22;1322;53.256;10.386;2023-08-07T10:37:44;19.10;99.90
2625;DHT22;1322;53.256;10.386;2023-08-07T10:40:11;18.70;99.90
2625;DHT22;1322;53.256;10.386;2023-08-07T10:45:18;17.80;99.90
2625;DHT22;1322;53.256;10.386;2023-08-07T10:50:32;17.40;99.90
2625;DHT22;1322;53.256;10.386;2023-08-07T10:53:04;17.50;99.90
2625;DHT22;1322;53.256;10.386;2023-08-07T10:55:44;17.80;99.90
2625;DHT22;1322;53.256;10.386;2023-08-07T10:58:29;18.20;99.90
2625;DHT22;1322;53.256;10.386;2023-08-07T11:01:17;18.60;99.90
2625;DHT22;1322;53.256;10.386;2023-08-07T11:03:50;18.90;99.90
2625;DHT22;1322;53.256;10.386;2023-08-07T11:06:17;19.40;99.90
2625;DHT22;1322;53.256;10.386;2023-08-07T11:08:43;19.60;99.90
2625;DHT22;1322;53.256;10.386;2023-08-07T11:11:09;19.80;99.90
2625;DHT22;1322;53.256;10.386;2023-08-07T11:13:35;20.00;99.90
2625;DHT22;1322;53.256;10.386;2023-08-07T11:16:02;19.90;99.90
2625;DHT22;1322;53.256;10.386;2023-08-07T11:18:27;20.00;99.90
2625;DHT22;1322;53.256;10.386;2023-08-07T11:20:55;20.00;99.90
2625;DHT22;1322;53.256;10.386;2023-08-07T11:23:26;20.00;99.90
2625;DHT22;1322;53.256;10.386;2023-08-07T11:25:52;19.90;99.90
2625;DHT22;1322;53.256;10.386;2023-08-07T11:28:19;19.70;99.90
2625;DHT22;1322;53.256;10.386;2023-08-07T11:30:48;19.60;99.90
2625;DHT22;1322;53.256;10.386;2023-08-07T11:33:14;19.40;99.90
2625;DHT22;1322;53.256;10.386;2023-08-07T11:35:43;19.40;99.90
2625;DHT22;1322;53.256;10.386;2023-08-07T11:38:09;19.50;99.90
2625;DHT22;1322;53.256;10.386;2023-08-07T11:40:35;19.50;99.90
2625;DHT22;1322;53.256;10.386;2023-08-07T11:43:01;19.70;99.90
2625;DHT22;1322;53.256;10.386;2023-08-07T11:45:27;19.90;99.90
2625;DHT22;1322;53.256;10.386;2023-08-07T11:47:53;20.20;99.90
2625;DHT22;1322;53.256;10.386;2023-08-07T11:50:22;20.00;99.90
2625;DHT22;1322;53.256;10.386;2023-08-07T11:52:48;19.80;99.90
2625;DHT22;1322;53.256;10.386;2023-08-07T11:55:17;19.60;99.90
2625;DHT22;1322;53.256;10.386;2023-08-07T11:57:47;19.40;99.90
2625;DHT22;1322;53.256;10.386;2023-08-07T12:00:13;19.10;99.90
2625;DHT22;1322;53.256;10.386;2023-08-07T12:02:43;19.10;99.90
2625;DHT22;1322;53.256;10.386;2023-08-07T12:05:11;19.10;99.90
2625;DHT22;1322;53.256;10.386;2023-08-07T12:07:40;19.40;99.90
2625;DHT22;1322;53.256;10.386;2023-08-07T12:10:10;19.80;99.90
2625;DHT22;1322;53.256;10.386;2023-08-07T12:12:37;20.10;99.90
2625;DHT22;1322;53.256;10.386;2023-08-07T12:15:06;20.10;99.90
2625;DHT22;1322;53.256;10.386;2023-08-07T12:17:32;19.50;99.90
2625;DHT22;1322;53.256;10.386;2023-08-07T12:19:58;18.80;99.90
2625;DHT22;1322;53.256;10.386;2023-08-07T12:22:27;18.60;99.90
2625;DHT22;1322;53.256;10.386;2023-08-07T12:24:53;18.60;99.90
2625;DHT22;1322;53.256;10.386;2023-08-07T12:27:19;18.80;99.90
2625;DHT22;1322;53.256;10.386;2023-08-07T12:29:45;19.00;99.90
2625;DHT22;1322;53.256;10.386;2023-08-07T12:32:11;19.10;99.90
2625;DHT22;1322;53.256;10.386;2023-08-07T12:34:37;19.20;99.90
2625;DHT22;1322;53.256;10.386;2023-08-07T12:37:04;19.30;99.90
2625;DHT22;1322;53.256;10.386;2023-08-07T12:39:29;19.60;99.90
2625;DHT22;1322;53.256;10.386;2023-08-07T12:41:55;19.60;99.90
2625;DHT22;1322;53.256;10.386;2023-08-07T12:44:21;19.70;99.90
2625;DHT22;1322;53.256;10.386;2023-08-07T12:46:46;19.80;99.90
2625;DHT22;1322;53.256;10.386;2023-08-07T12:49:12;19.90;99.90
2625;DHT22;1322;53.256;10.386;2023-08-07T12:51:38;19.90;99.90
2625;DHT22;1322;53.256;10.386;2023-08-07T12:54:03;19.90;99.90
2625;DHT22;1322;53.256;10.386;2023-08-07T12:56:29;19.90;99.90
2625;DHT22;1322;53.256;10.386;2023-08-07T12:58:55;19.70;99.90
2625;DHT22;1322;53.256;10.386;2023-08-07T13:01:21;19.70;99.90
2625;DHT22;1322;53.256;10.386;2023-08-07T13:03:46;19.80;99.90
2625;DHT22;1322;53.256;10.386;2023-08-07T13:06:12;19.80;99.90
2625;DHT22;1322;53.256;10.386;2023-08-07T13:08:37;19.80;99.90
2625;DHT22;1322;53.256;10.386;2023-08-07T13:11:03;19.80;99.90
2625;DHT22;1322;53.256;10.386;2023-08-07T13:13:29;19.80;99.90
2625;DHT22;1322;53.256;10.386;2023-08-07T13:15:56;19.90;99.90
2625;DHT22;1322;53.256;10.386;2023-08-07T13:18:22;20.00;99.90
2625;DHT22;1322;53.256;10.386;2023-08-07T13:20:47;20.10;99.90
2625;DHT22;1322;53.256;10.386;2023-08-07T13:23:14;20.30;99.90
2625;DHT22;1322;53.256;10.386;2023-08-07T13:25:40;20.50;99.90
2625;DHT22;1322;53.256;10.386;2023-08-07T13:28:06;20.60;99.90
2625;DHT22;1322;53.256;10.386;2023-08-07T13:30:35;20.40;99.90
2625;DHT22;1322;53.256;10.386;2023-08-07T13:33:01;20.20;99.90
2625;DHT22;1322;53.256;10.386;2023-08-07T13:35:27;19.80;99.90
2625;DHT22;1322;53.256;10.386;2023-08-07T13:37:52;19.50;99.90
2625;DHT22;1322;53.256;10.386;2023-08-07T13:40:18;19.40;99.90
2625;DHT22;1322;53.256;10.386;2023-08-07T13:42:45;19.30;99.90
2625;DHT22;1322;53.256;10.386;2023-08-07T13:45:12;19.20;99.90
2625;DHT22;1322;53.256;10.386;2023-08-07T13:47:39;19.10;99.90
2625;DHT22;1322;53.256;10.386;2023-08-07T13:50:05;18.80;99.90
2625;DHT22;1322;53.256;10.386;2023-08-07T13:52:33;18.30;99.90
2625;DHT22;1322;53.256;10.386;2023-08-07T13:54:59;18.20;99.90
2625;DHT22;1322;53.256;10.386;2023-08-07T13:57:24;17.90;99.90
2625;DHT22;1322;53.256;10.386;2023-08-07T13:59:50;17.70;99.90
2625;DHT22;1322;53.256;10.386;2023-08-07T14:02:15;17.70;99.90
2625;DHT22;1322;53.256;10.386;2023-08-07T14:04:41;17.80;99.90
2625;DHT22;1322;53.256;10.386;2023-08-07T14:07:10;18.00;99.90
2625;DHT22;1322;53.256;10.386;2023-08-07T14:09:36;18.10;99.90
2625;DHT22;1322;53.256;10.386;2023-08-07T14:12:03;18.20;99.90
2625;DHT22;1322;53.256;10.386;2023-08-07T14:14:29;18.30;99.90
2625;DHT22;1322;53.256;10.386;2023-08-07T14:16:55;18.50;99.90
2625;DHT22;1322;53.256;10.386;2023-08-07T14:19:23;18.60;99.90
2625;DHT22;1322;53.256;10.386;2023-08-07T14:21:49;18.60;99.90
2625;DHT22;1322;53.256;10.386;2023-08-07T14:24:15;18.50;99.90
2625;DHT22;1322;53.256;10.386;2023-08-07T14:26:42;18.60;99.90
2625;DHT22;1322;53.256;10.386;2023-08-07T14:29:08;18.80;99.90
2625;DHT22;1322;53.256;10.386;2023-08-07T14:31:33;19.00;99.90
2625;DHT22;1322;53.256;10.386;2023-08-07T14:33:59;19.10;99.90
2625;DHT22;1322;53.256;10.386;2023-08-07T14:36:25;19.00;99.90
2625;DHT22;1322;53.256;10.386;2023-08-07T14:38:50;18.80;99.90
2625;DHT22;1322;53.256;10.386;2023-08-07T14:41:17;18.60;99.90
2625;DHT22;1322;53.256;10.386;2023-08-07T14:43:43;18.10;99.90
2625;DHT22;1322;53.256;10.386;2023-08-07T14:46:09;18.00;99.90
2625;DHT22;1322;53.256;10.386;2023-08-07T14:48:35;18.00;99.90
2625;DHT22;1322;53.256;10.386;2023-08-07T14:51:00;17.90;99.90
2625;DHT22;1322;53.256;10.386;2023-08-07T14:53:26;17.90;99.90
2625;DHT22;1322;53.256;10.386;2023-08-07T14:55:52;18.00;99.90
2625;DHT22;1322;53.256;10.386;2023-08-07T14:58:18;18.10;99.90
2625;DHT22;1322;53.256;10.386;2023-08-07T15:00:44;18.10;99.90
2625;DHT22;1322;53.256;10.386;2023-08-07T15:03:09;18.20;99.90
2625;DHT22;1322;53.256;10.386;2023-08-07T15:05:35;18.10;99.90
2625;DHT22;1322;53.256;10.386;2023-08-07T15:08:01;18.00;99.90
2625;DHT22;1322;53.256;10.386;2023-08-07T15:10:28;18.10;99.90
2625;DHT22;1322;53.256;10.386;2023-08-07T15:12:54;17.90;99.90
2625;DHT22;1322;53.256;10.386;2023-08-07T15:15:21;18.00;99.90
2625;DHT22;1322;53.256;10.386;2023-08-07T15:17:46;18.30;99.90
2625;DHT22;1322;53.256;10.386;2023-08-07T15:20:12;18.40;99.90
2625;DHT22;1322;53.256;10.386;2023-08-07T15:22:37;18.40;99.90
2625;DHT22;1322;53.256;10.386;2023-08-07T15:25:03;18.40;99.90
2625;DHT22;1322;53.256;10.386;2023-08-07T15:27:29;18.40;99.90
2625;DHT22;1322;53.256;10.386;2023-08-07T15:29:55;18.50;99.90
2625;DHT22;1322;53.256;10.386;2023-08-07T15:32:20;18.60;99.90
2625;DHT22;1322;53.256;10.386;2023-08-07T15:34:46;18.60;99.90
2625;DHT22;1322;53.256;10.386;2023-08-07T15:37:13;18.60;99.90
2625;DHT22;1322;53.256;10.386;2023-08-07T15:39:39;18.60;99.90
2625;DHT22;1322;53.256;10.386;2023-08-07T15:42:06;18.60;99.90
2625;DHT22;1322;53.256;10.386;2023-08-07T15:44:32;18.60;99.90
2625;DHT22;1322;53.256;10.386;2023-08-07T15:46:57;18.60;99.90
2625;DHT22;1322;53.256;10.386;2023-08-07T15:49:23;18.60;99.90
2625;DHT22;1322;53.256;10.386;2023-08-07T15:51:49;18.80;99.90
2625;DHT22;1322;53.256;10.386;2023-08-07T15:54:15;18.90;99.90